METAR Data
IDs: Format: Raw Decoded Include TAF

Data at: 1431 UTC 27 Nov 2021

EDMO 271420Z AUTO 25009KT 9999 // FEW020/// SCT062/// OVC073/// 03/00 Q0993